Big Bear Station Historical Data
Daily Summary for March 29, 2017 Units:  English    Metric   Both
« Previous Day
Next Day »
Daily Weekly Monthly Yearly Custom
  High: Low: Average:
Temperature: 66.2 °F 32.2 °F 47.8 °F
Dew Point: 34.1 °F 17.7 °F 26.9 °F
Humidity: 80 % 18 % 48 %
Wind Speed: 7.8 mph 0.0 mph 2.2 mph
Wind Gust: -999.0 mph - -
Wind:- - SW
Pressure: 30.24 in 30.18 in -
Precipitation: 0.00 in    
Historical Graphs
 
 
Tabular Data for March 29, 2017
Time Temperature Dew Point Pressure Wind Wind Speed Wind Gust Humidity Rainfall Rate (Hourly)
00:03 41.4 °F 17.7 °F 30.20 in ESE 3.2 mph -999.0 mph 38 % 0 in
00:19 41.2 °F 18.7 °F 30.20 in SW 2.2 mph -999.0 mph 40 % 0 in
00:34 41.2 °F 18.7 °F 30.20 in SSE 1.7 mph -999.0 mph 40 % 0 in
00:49 41.5 °F 19.0 °F 30.20 in NNW 3.2 mph -999.0 mph 40 % 0 in
01:04 41.2 °F 18.7 °F 30.20 in Calm   -999.0 mph 40 % 0 in
01:20 41.5 °F 19.5 °F 30.20 in SW 2.7 mph -999.0 mph 41 % 0 in
01:35 40.8 °F 20.0 °F 30.19 in ENE 2.2 mph -999.0 mph 43 % 0 in
01:51 40.3 °F 21.1 °F 30.19 in South 2.7 mph -999.0 mph 46 % 0 in
02:06 39.0 °F 21.4 °F 30.19 in South 2.2 mph -999.0 mph 49 % 0 in
02:21 39.0 °F 20.5 °F 30.19 in SE 2.2 mph -999.0 mph 47 % 0 in
02:36 39.2 °F 22.1 °F 30.19 in SSW 5.8 mph -999.0 mph 50 % 0 in
02:51 38.3 °F 21.3 °F 30.19 in SSE 2.7 mph -999.0 mph 50 % 0 in
03:07 37.8 °F 21.7 °F 30.18 in SSW 3.2 mph -999.0 mph 52 % 0 in
03:22 37.2 °F 21.2 °F 30.18 in SSW 2.2 mph -999.0 mph 52 % 0 in
03:37 37.0 °F 21.9 °F 30.18 in ESE 2.2 mph -999.0 mph 54 % 0 in
03:52 36.9 °F 21.8 °F 30.18 in South 3.2 mph -999.0 mph 54 % 0 in
04:07 36.9 °F 21.4 °F 30.18 in South 2.2 mph -999.0 mph 53 % 0 in
04:23 36.1 °F 21.5 °F 30.18 in SSE 1.7 mph -999.0 mph 55 % 0 in
04:38 36.1 °F 21.0 °F 30.18 in Calm   -999.0 mph 54 % 0 in
04:53 35.6 °F 21.4 °F 30.18 in Calm   -999.0 mph 56 % 0 in
05:08 35.1 °F 21.8 °F 30.19 in Calm   -999.0 mph 58 % 0 in
05:23 34.9 °F 22.4 °F 30.20 in South 2.2 mph -999.0 mph 60 % 0 in
05:39 34.3 °F 22.2 °F 30.20 in South 1.7 mph -999.0 mph 61 % 0 in
05:54 33.8 °F 21.8 °F 30.19 in Calm   -999.0 mph 61 % 0 in
06:09 33.3 °F 24.2 °F 30.19 in Calm   -999.0 mph 69 % 0 in
06:24 33.1 °F 25.1 °F 30.20 in ESE 1.7 mph -999.0 mph 72 % 0 in
06:40 32.5 °F 24.8 °F 30.20 in Calm   -999.0 mph 73 % 0 in
06:55 32.2 °F 25.2 °F 30.20 in SSE 1.1 mph -999.0 mph 75 % 0 in
07:10 32.2 °F 25.2 °F 30.20 in Calm   -999.0 mph 75 % 0 in
07:25 32.5 °F 25.8 °F 30.20 in Calm   -999.0 mph 76 % 0 in
07:40 33.6 °F 26.8 °F 30.21 in Calm   -999.0 mph 76 % 0 in
07:56 36.3 °F 26.0 °F 30.21 in South 1.7 mph -999.0 mph 66 % 0 in
08:11 36.9 °F 26.6 °F 30.22 in Calm   -999.0 mph 66 % 0 in
08:26 38.1 °F 28.1 °F 30.22 in Calm   -999.0 mph 67 % 0 in
08:41 42.6 °F 29.7 °F 30.22 in Calm   -999.0 mph 60 % 0 in
08:56 44.4 °F 25.9 °F 30.23 in Calm   -999.0 mph 48 % 0 in
09:12 46.2 °F 23.2 °F 30.22 in Calm   -999.0 mph 40 % 0 in
09:27 47.8 °F 23.4 °F 30.23 in NNW 2.7 mph -999.0 mph 38 % 0 in
09:42 50.4 °F 22.4 °F 30.23 in NNE 3.2 mph -999.0 mph 33 % 0 in
09:57 51.6 °F 21.9 °F 30.23 in NNW 2.7 mph -999.0 mph 31 % 0 in
10:12 53.2 °F 22.5 °F 30.23 in North 3.7 mph -999.0 mph 30 % 0 in
10:28 54.3 °F 24.3 °F 30.23 in NNW 2.7 mph -999.0 mph 31 % 0 in
10:43 55.2 °F 24.3 °F 30.24 in NW 3.7 mph -999.0 mph 30 % 0 in
10:58 57.4 °F 23.7 °F 30.24 in NNW 5.3 mph -999.0 mph 27 % 0 in
11:14 58.5 °F 22.8 °F 30.23 in SE 2.2 mph -999.0 mph 25 % 0 in
11:29 59.2 °F 22.4 °F 30.23 in ENE 2.2 mph -999.0 mph 24 % 0 in
11:44 61.2 °F 23.1 °F 30.23 in ENE 1.1 mph -999.0 mph 23 % 0 in
11:59 62.2 °F 33.5 °F 30.23 in NW 3.7 mph -999.0 mph 34 % 0 in
12:15 62.1 °F 23.8 °F 30.23 in NNE 2.7 mph -999.0 mph 23 % 0 in
12:30 64.9 °F 20.4 °F 30.22 in NNW 7.8 mph -999.0 mph 18 % 0 in
12:45 64.6 °F 20.1 °F 30.22 in ESE 1.7 mph -999.0 mph 18 % 0 in
13:01 65.8 °F 21.1 °F 30.22 in East 3.2 mph -999.0 mph 18 % 0 in
13:16 65.1 °F 29.4 °F 30.22 in NNE 4.7 mph -999.0 mph 26 % 0 in
13:31 66.2 °F 32.1 °F 30.21 in NW 4.2 mph -999.0 mph 28 % 0 in
13:47 65.3 °F 30.5 °F 30.21 in NW 3.2 mph -999.0 mph 27 % 0 in
14:02 66.2 °F 32.1 °F 30.21 in NW 5.3 mph -999.0 mph 28 % 0 in
14:17 64.2 °F 33.7 °F 30.21 in North 3.7 mph -999.0 mph 32 % 0 in
14:33 63.7 °F 31.7 °F 30.21 in NNW 4.7 mph -999.0 mph 30 % 0 in
14:48 63.7 °F 32.5 °F 30.21 in NW 4.7 mph -999.0 mph 31 % 0 in
15:04 64.2 °F 29.5 °F 30.21 in NW 4.2 mph -999.0 mph 27 % 0 in
15:19 64.2 °F 30.4 °F 30.21 in WNW 3.7 mph -999.0 mph 28 % 0 in
15:34 64.0 °F 30.2 °F 30.20 in NW 3.7 mph -999.0 mph 28 % 0 in
15:49 64.2 °F 32.1 °F 30.20 in NW 3.7 mph -999.0 mph 30 % 0 in
16:04 62.2 °F 30.4 °F 30.20 in West 2.2 mph -999.0 mph 30 % 0 in
16:20 61.5 °F 31.4 °F 30.20 in SSE 2.2 mph -999.0 mph 32 % 0 in
16:35 61.0 °F 32.4 °F 30.20 in WNW 3.7 mph -999.0 mph 34 % 0 in
16:51 61.0 °F 31.7 °F 30.20 in NW 3.2 mph -999.0 mph 33 % 0 in
17:06 63.1 °F 32.8 °F 30.20 in WNW 3.2 mph -999.0 mph 32 % 0 in
17:21 64.6 °F 34.1 °F 30.20 in NNW 4.2 mph -999.0 mph 32 % 0 in
17:36 63.9 °F 33.5 °F 30.20 in NW 3.7 mph -999.0 mph 32 % 0 in
17:51 59.2 °F 32.2 °F 30.20 in WNW 4.2 mph -999.0 mph 36 % 0 in
18:07 56.7 °F 32.0 °F 30.20 in West 2.2 mph -999.0 mph 39 % 0 in
18:22 55.2 °F 31.9 °F 30.20 in NW 2.7 mph -999.0 mph 41 % 0 in
18:37 54.1 °F 30.9 °F 30.20 in WSW 1.1 mph -999.0 mph 41 % 0 in
18:52 52.9 °F 30.4 °F 30.20 in Calm   -999.0 mph 42 % 0 in
19:08 50.9 °F 31.4 °F 30.20 in SSE 2.7 mph -999.0 mph 47 % 0 in
19:23 49.1 °F 32.7 °F 30.20 in South 1.7 mph -999.0 mph 53 % 0 in
19:38 48.0 °F 31.7 °F 30.20 in SSW 1.1 mph -999.0 mph 53 % 0 in
19:53 46.2 °F 32.7 °F 30.20 in South 1.7 mph -999.0 mph 59 % 0 in
20:08 45.3 °F 31.8 °F 30.21 in Calm   -999.0 mph 59 % 0 in
20:24 44.6 °F 31.2 °F 30.21 in South 1.7 mph -999.0 mph 59 % 0 in
20:39 43.9 °F 31.3 °F 30.21 in Calm   -999.0 mph 61 % 0 in
20:54 43.2 °F 31.8 °F 30.21 in Calm   -999.0 mph 64 % 0 in
21:09 42.6 °F 32.0 °F 30.21 in South 1.7 mph -999.0 mph 66 % 0 in
21:24 41.9 °F 30.2 °F 30.21 in South 1.7 mph -999.0 mph 63 % 0 in
21:40 41.4 °F 30.1 °F 30.21 in South 1.7 mph -999.0 mph 64 % 0 in
21:55 41.0 °F 32.0 °F 30.21 in Calm   -999.0 mph 70 % 0 in
22:11 40.6 °F 32.6 °F 30.21 in South 1.7 mph -999.0 mph 73 % 0 in
22:26 40.1 °F 32.5 °F 30.20 in South 1.7 mph -999.0 mph 74 % 0 in
22:41 39.7 °F 32.8 °F 30.20 in Calm   -999.0 mph 76 % 0 in
22:56 39.2 °F 32.3 °F 30.20 in SSW 1.1 mph -999.0 mph 76 % 0 in
23:11 39.0 °F 32.4 °F 30.20 in South 1.7 mph -999.0 mph 77 % 0 in
23:27 38.7 °F 32.1 °F 30.20 in SSW 1.7 mph -999.0 mph 77 % 0 in
23:42 38.8 °F 32.8 °F 30.20 in South 1.7 mph -999.0 mph 79 % 0 in
23:57 38.1 °F 32.5 °F 30.19 in Calm   -999.0 mph 80 % 0 in
Big Bear CA Weather
Compliments of Weather Underground - 1.5 mb